sensor_id;sensor_type;location;lat;lon;timestamp;P1;durP1;ratioP1;P2;durP2;ratioP2
8219;SDS011;4151;51.110;7.020;2022-12-04T00:02:03;26.63;;;11.60;;
8219;SDS011;4151;51.110;7.020;2022-12-04T00:04:28;28.40;;;12.93;;
8219;SDS011;4151;51.110;7.020;2022-12-04T00:06:54;24.43;;;12.20;;
8219;SDS011;4151;51.110;7.020;2022-12-04T00:09:20;23.83;;;11.60;;
8219;SDS011;4151;51.110;7.020;2022-12-04T00:11:45;27.67;;;12.90;;
8219;SDS011;4151;51.110;7.020;2022-12-04T00:14:11;29.13;;;12.20;;
8219;SDS011;4151;51.110;7.020;2022-12-04T00:16:37;25.70;;;12.33;;
8219;SDS011;4151;51.110;7.020;2022-12-04T00:19:03;29.37;;;12.73;;
8219;SDS011;4151;51.110;7.020;2022-12-04T00:21:29;27.20;;;11.30;;
8219;SDS011;4151;51.110;7.020;2022-12-04T00:23:54;30.03;;;12.90;;
8219;SDS011;4151;51.110;7.020;2022-12-04T00:26:21;33.97;;;13.07;;
8219;SDS011;4151;51.110;7.020;2022-12-04T00:28:49;28.20;;;13.37;;
8219;SDS011;4151;51.110;7.020;2022-12-04T00:31:16;35.20;;;14.10;;
8219;SDS011;4151;51.110;7.020;2022-12-04T00:33:46;24.57;;;11.10;;
8219;SDS011;4151;51.110;7.020;2022-12-04T00:36:12;27.33;;;11.80;;
8219;SDS011;4151;51.110;7.020;2022-12-04T00:38:39;24.73;;;11.97;;
8219;SDS011;4151;51.110;7.020;2022-12-04T00:41:07;25.00;;;11.33;;
8219;SDS011;4151;51.110;7.020;2022-12-04T00:43:33;27.07;;;12.77;;
8219;SDS011;4151;51.110;7.020;2022-12-04T00:45:58;27.73;;;11.40;;
8219;SDS011;4151;51.110;7.020;2022-12-04T00:48:24;27.43;;;12.27;;
8219;SDS011;4151;51.110;7.020;2022-12-04T00:50:50;24.43;;;12.07;;
8219;SDS011;4151;51.110;7.020;2022-12-04T00:53:15;26.53;;;12.67;;
8219;SDS011;4151;51.110;7.020;2022-12-04T00:55:41;26.60;;;12.67;;
8219;SDS011;4151;51.110;7.020;2022-12-04T00:58:08;25.00;;;11.73;;
8219;SDS011;4151;51.110;7.020;2022-12-04T01:00:34;29.20;;;13.57;;
8219;SDS011;4151;51.110;7.020;2022-12-04T01:03:01;25.77;;;11.47;;
8219;SDS011;4151;51.110;7.020;2022-12-04T01:05:27;28.23;;;13.03;;
8219;SDS011;4151;51.110;7.020;2022-12-04T01:07:53;23.93;;;11.83;;
8219;SDS011;4151;51.110;7.020;2022-12-04T01:10:18;23.50;;;11.13;;
8219;SDS011;4151;51.110;7.020;2022-12-04T01:12:44;24.00;;;11.03;;
8219;SDS011;4151;51.110;7.020;2022-12-04T01:15:12;22.00;;;10.53;;
8219;SDS011;4151;51.110;7.020;2022-12-04T01:17:38;27.57;;;12.43;;
8219;SDS011;4151;51.110;7.020;2022-12-04T01:20:03;26.67;;;11.70;;
8219;SDS011;4151;51.110;7.020;2022-12-04T01:22:29;25.70;;;12.03;;
8219;SDS011;4151;51.110;7.020;2022-12-04T01:24:55;23.33;;;11.53;;
8219;SDS011;4151;51.110;7.020;2022-12-04T01:27:21;23.50;;;11.20;;
8219;SDS011;4151;51.110;7.020;2022-12-04T01:29:47;27.83;;;13.00;;
8219;SDS011;4151;51.110;7.020;2022-12-04T01:32:12;26.57;;;11.67;;
8219;SDS011;4151;51.110;7.020;2022-12-04T01:34:38;27.53;;;11.30;;
8219;SDS011;4151;51.110;7.020;2022-12-04T01:37:03;21.10;;;10.33;;
8219;SDS011;4151;51.110;7.020;2022-12-04T01:39:29;24.87;;;11.10;;
8219;SDS011;4151;51.110;7.020;2022-12-04T01:41:54;26.07;;;11.27;;
8219;SDS011;4151;51.110;7.020;2022-12-04T01:44:24;27.20;;;11.67;;
8219;SDS011;4151;51.110;7.020;2022-12-04T01:46:53;26.33;;;10.80;;
8219;SDS011;4151;51.110;7.020;2022-12-04T01:49:31;23.70;;;10.90;;
8219;SDS011;4151;51.110;7.020;2022-12-04T01:52:08;22.20;;;11.00;;
8219;SDS011;4151;51.110;7.020;2022-12-04T01:54:40;28.07;;;11.23;;
8219;SDS011;4151;51.110;7.020;2022-12-04T01:57:14;24.10;;;11.80;;
8219;SDS011;4151;51.110;7.020;2022-12-04T01:59:44;22.07;;;11.20;;
8219;SDS011;4151;51.110;7.020;2022-12-04T02:02:16;21.50;;;10.40;;
8219;SDS011;4151;51.110;7.020;2022-12-04T02:04:46;28.30;;;11.80;;
8219;SDS011;4151;51.110;7.020;2022-12-04T02:07:12;25.70;;;10.70;;
8219;SDS011;4151;51.110;7.020;2022-12-04T02:09:38;24.80;;;11.87;;
8219;SDS011;4151;51.110;7.020;2022-12-04T02:12:07;29.33;;;12.37;;
8219;SDS011;4151;51.110;7.020;2022-12-04T02:15:02;22.70;;;10.40;;
8219;SDS011;4151;51.110;7.020;2022-12-04T02:28:52;32.90;;;12.87;;
8219;SDS011;4151;51.110;7.020;2022-12-04T02:31:20;22.73;;;10.70;;
8219;SDS011;4151;51.110;7.020;2022-12-04T02:33:59;25.00;;;11.17;;
8219;SDS011;4151;51.110;7.020;2022-12-04T02:36:34;24.50;;;11.90;;
8219;SDS011;4151;51.110;7.020;2022-12-04T02:39:21;24.37;;;10.80;;
8219;SDS011;4151;51.110;7.020;2022-12-04T02:44:33;23.93;;;11.30;;
8219;SDS011;4151;51.110;7.020;2022-12-04T02:47:04;26.10;;;10.40;;
8219;SDS011;4151;51.110;7.020;2022-12-04T02:49:39;27.03;;;10.70;;
8219;SDS011;4151;51.110;7.020;2022-12-04T02:52:23;26.30;;;11.30;;
8219;SDS011;4151;51.110;7.020;2022-12-04T02:54:56;21.83;;;10.67;;
8219;SDS011;4151;51.110;7.020;2022-12-04T02:57:27;30.20;;;12.50;;
8219;SDS011;4151;51.110;7.020;2022-12-04T02:59:57;24.90;;;11.50;;
8219;SDS011;4151;51.110;7.020;2022-12-04T03:02:27;24.70;;;11.43;;
8219;SDS011;4151;51.110;7.020;2022-12-04T03:04:57;23.50;;;11.30;;
8219;SDS011;4151;51.110;7.020;2022-12-04T03:10:27;27.60;;;13.43;;
8219;SDS011;4151;51.110;7.020;2022-12-04T03:13:05;27.20;;;12.30;;
8219;SDS011;4151;51.110;7.020;2022-12-04T03:15:42;28.47;;;11.60;;
8219;SDS011;4151;51.110;7.020;2022-12-04T03:20:52;26.60;;;11.23;;
8219;SDS011;4151;51.110;7.020;2022-12-04T03:23:24;27.07;;;12.57;;
8219;SDS011;4151;51.110;7.020;2022-12-04T03:26:05;26.83;;;12.30;;
8219;SDS011;4151;51.110;7.020;2022-12-04T03:31:32;24.10;;;10.80;;
8219;SDS011;4151;51.110;7.020;2022-12-04T03:34:04;24.60;;;11.77;;
8219;SDS011;4151;51.110;7.020;2022-12-04T03:36:34;27.23;;;11.23;;
8219;SDS011;4151;51.110;7.020;2022-12-04T03:42:14;27.90;;;12.50;;
8219;SDS011;4151;51.110;7.020;2022-12-04T03:44:48;26.03;;;11.70;;
8219;SDS011;4151;51.110;7.020;2022-12-04T03:50:15;26.07;;;11.43;;
8219;SDS011;4151;51.110;7.020;2022-12-04T03:53:14;22.10;;;10.87;;
8219;SDS011;4151;51.110;7.020;2022-12-04T03:55:46;22.13;;;11.13;;
8219;SDS011;4151;51.110;7.020;2022-12-04T03:58:29;29.73;;;11.70;;
8219;SDS011;4151;51.110;7.020;2022-12-04T04:00:58;31.27;;;12.60;;
8219;SDS011;4151;51.110;7.020;2022-12-04T04:03:27;27.50;;;12.17;;
8219;SDS011;4151;51.110;7.020;2022-12-04T04:05:57;31.60;;;13.10;;
8219;SDS011;4151;51.110;7.020;2022-12-04T04:08:28;26.87;;;12.20;;
8219;SDS011;4151;51.110;7.020;2022-12-04T04:13:37;26.67;;;12.13;;
8219;SDS011;4151;51.110;7.020;2022-12-04T04:16:27;25.27;;;11.23;;
8219;SDS011;4151;51.110;7.020;2022-12-04T04:19:14;28.57;;;12.00;;
8219;SDS011;4151;51.110;7.020;2022-12-04T04:22:01;25.73;;;11.20;;
8219;SDS011;4151;51.110;7.020;2022-12-04T04:24:54;25.53;;;11.60;;
8219;SDS011;4151;51.110;7.020;2022-12-04T04:27:26;29.70;;;11.13;;
8219;SDS011;4151;51.110;7.020;2022-12-04T04:29:52;28.47;;;12.07;;
8219;SDS011;4151;51.110;7.020;2022-12-04T04:32:21;27.63;;;12.70;;
8219;SDS011;4151;51.110;7.020;2022-12-04T04:40:36;24.40;;;10.87;;
8219;SDS011;4151;51.110;7.020;2022-12-04T04:43:10;23.63;;;10.73;;
8219;SDS011;4151;51.110;7.020;2022-12-04T04:50:40;36.10;;;14.63;;
8219;SDS011;4151;51.110;7.020;2022-12-04T04:53:09;27.50;;;11.67;;
8219;SDS011;4151;51.110;7.020;2022-12-04T04:55:39;29.20;;;13.40;;
8219;SDS011;4151;51.110;7.020;2022-12-04T04:58:06;29.23;;;12.37;;
8219;SDS011;4151;51.110;7.020;2022-12-04T05:00:37;29.70;;;11.13;;
8219;SDS011;4151;51.110;7.020;2022-12-04T05:03:04;30.20;;;12.80;;
8219;SDS011;4151;51.110;7.020;2022-12-04T05:05:30;25.13;;;11.07;;
8219;SDS011;4151;51.110;7.020;2022-12-04T05:07:55;24.10;;;11.47;;
8219;SDS011;4151;51.110;7.020;2022-12-04T05:10:21;27.40;;;12.73;;
8219;SDS011;4151;51.110;7.020;2022-12-04T05:12:47;26.87;;;10.67;;
8219;SDS011;4151;51.110;7.020;2022-12-04T05:15:12;24.50;;;12.13;;
8219;SDS011;4151;51.110;7.020;2022-12-04T05:17:38;24.47;;;10.90;;
8219;SDS011;4151;51.110;7.020;2022-12-04T05:20:04;30.97;;;11.20;;
8219;SDS011;4151;51.110;7.020;2022-12-04T05:22:31;29.87;;;12.70;;
8219;SDS011;4151;51.110;7.020;2022-12-04T05:24:58;22.23;;;10.20;;
8219;SDS011;4151;51.110;7.020;2022-12-04T05:27:25;24.03;;;10.43;;
8219;SDS011;4151;51.110;7.020;2022-12-04T05:29:52;25.17;;;10.40;;
8219;SDS011;4151;51.110;7.020;2022-12-04T05:32:18;19.77;;;8.63;;
8219;SDS011;4151;51.110;7.020;2022-12-04T05:34:48;20.67;;;9.90;;
8219;SDS011;4151;51.110;7.020;2022-12-04T05:37:15;19.50;;;9.03;;
8219;SDS011;4151;51.110;7.020;2022-12-04T05:39:40;23.43;;;8.70;;
8219;SDS011;4151;51.110;7.020;2022-12-04T05:42:06;18.60;;;8.50;;
8219;SDS011;4151;51.110;7.020;2022-12-04T05:44:32;18.03;;;8.60;;
8219;SDS011;4151;51.110;7.020;2022-12-04T05:46:57;15.80;;;7.60;;
8219;SDS011;4151;51.110;7.020;2022-12-04T05:49:23;15.00;;;7.60;;
8219;SDS011;4151;51.110;7.020;2022-12-04T05:51:49;16.17;;;7.70;;
8219;SDS011;4151;51.110;7.020;2022-12-04T05:54:16;15.73;;;8.80;;
8219;SDS011;4151;51.110;7.020;2022-12-04T05:56:42;15.67;;;8.10;;
8219;SDS011;4151;51.110;7.020;2022-12-04T05:59:08;20.60;;;9.53;;
8219;SDS011;4151;51.110;7.020;2022-12-04T06:01:33;14.40;;;6.77;;
8219;SDS011;4151;51.110;7.020;2022-12-04T06:03:59;15.90;;;7.70;;
8219;SDS011;4151;51.110;7.020;2022-12-04T06:06:25;13.57;;;5.90;;
8219;SDS011;4151;51.110;7.020;2022-12-04T06:08:52;13.07;;;7.00;;
8219;SDS011;4151;51.110;7.020;2022-12-04T06:11:20;14.23;;;6.90;;
8219;SDS011;4151;51.110;7.020;2022-12-04T06:13:50;13.30;;;6.20;;
8219;SDS011;4151;51.110;7.020;2022-12-04T06:16:17;15.50;;;7.53;;
8219;SDS011;4151;51.110;7.020;2022-12-04T06:18:43;14.90;;;6.20;;
8219;SDS011;4151;51.110;7.020;2022-12-04T06:21:12;13.53;;;6.57;;
8219;SDS011;4151;51.110;7.020;2022-12-04T06:23:37;13.60;;;6.70;;
8219;SDS011;4151;51.110;7.020;2022-12-04T06:26:04;13.63;;;7.00;;
8219;SDS011;4151;51.110;7.020;2022-12-04T06:28:32;13.60;;;6.20;;
8219;SDS011;4151;51.110;7.020;2022-12-04T06:31:02;12.10;;;6.10;;
8219;SDS011;4151;51.110;7.020;2022-12-04T06:33:29;9.10;;;5.53;;
8219;SDS011;4151;51.110;7.020;2022-12-04T06:35:58;11.57;;;6.17;;
8219;SDS011;4151;51.110;7.020;2022-12-04T06:38:36;8.90;;;5.57;;
8219;SDS011;4151;51.110;7.020;2022-12-04T06:41:03;13.10;;;5.50;;
8219;SDS011;4151;51.110;7.020;2022-12-04T06:43:30;9.40;;;5.50;;
8219;SDS011;4151;51.110;7.020;2022-12-04T06:46:02;8.53;;;5.33;;
8219;SDS011;4151;51.110;7.020;2022-12-04T06:48:31;9.27;;;5.23;;
8219;SDS011;4151;51.110;7.020;2022-12-04T06:50:58;10.73;;;5.70;;
8219;SDS011;4151;51.110;7.020;2022-12-04T06:53:32;8.33;;;5.40;;
8219;SDS011;4151;51.110;7.020;2022-12-04T06:56:00;12.07;;;5.87;;
8219;SDS011;4151;51.110;7.020;2022-12-04T06:58:27;12.13;;;6.70;;
8219;SDS011;4151;51.110;7.020;2022-12-04T07:00:53;10.80;;;6.40;;
8219;SDS011;4151;51.110;7.020;2022-12-04T07:03:20;12.53;;;6.57;;
8219;SDS011;4151;51.110;7.020;2022-12-04T07:05:46;10.90;;;5.23;;
8219;SDS011;4151;51.110;7.020;2022-12-04T07:08:12;11.27;;;5.33;;
8219;SDS011;4151;51.110;7.020;2022-12-04T07:10:38;12.23;;;6.20;;
8219;SDS011;4151;51.110;7.020;2022-12-04T07:13:04;13.23;;;5.60;;
8219;SDS011;4151;51.110;7.020;2022-12-04T07:15:31;10.10;;;5.83;;
8219;SDS011;4151;51.110;7.020;2022-12-04T07:17:57;11.90;;;5.77;;
8219;SDS011;4151;51.110;7.020;2022-12-04T07:20:23;12.57;;;6.07;;
8219;SDS011;4151;51.110;7.020;2022-12-04T07:22:49;10.80;;;5.70;;
8219;SDS011;4151;51.110;7.020;2022-12-04T07:25:15;12.70;;;6.13;;
8219;SDS011;4151;51.110;7.020;2022-12-04T07:27:40;9.93;;;6.10;;
8219;SDS011;4151;51.110;7.020;2022-12-04T07:30:06;11.30;;;6.20;;
8219;SDS011;4151;51.110;7.020;2022-12-04T07:32:32;12.20;;;6.30;;
8219;SDS011;4151;51.110;7.020;2022-12-04T07:34:58;10.87;;;6.13;;
8219;SDS011;4151;51.110;7.020;2022-12-04T07:37:23;11.47;;;6.47;;
8219;SDS011;4151;51.110;7.020;2022-12-04T07:39:52;9.83;;;5.40;;
8219;SDS011;4151;51.110;7.020;2022-12-04T07:42:18;12.50;;;6.83;;
8219;SDS011;4151;51.110;7.020;2022-12-04T07:44:44;13.37;;;6.83;;
8219;SDS011;4151;51.110;7.020;2022-12-04T07:47:10;16.47;;;5.90;;
8219;SDS011;4151;51.110;7.020;2022-12-04T07:49:35;10.30;;;6.10;;
8219;SDS011;4151;51.110;7.020;2022-12-04T07:52:01;12.00;;;6.20;;
8219;SDS011;4151;51.110;7.020;2022-12-04T07:54:27;13.23;;;7.10;;
8219;SDS011;4151;51.110;7.020;2022-12-04T07:56:52;11.30;;;6.50;;
8219;SDS011;4151;51.110;7.020;2022-12-04T07:59:18;15.73;;;7.17;;
8219;SDS011;4151;51.110;7.020;2022-12-04T08:01:43;14.57;;;7.03;;
8219;SDS011;4151;51.110;7.020;2022-12-04T08:04:09;16.50;;;7.63;;
8219;SDS011;4151;51.110;7.020;2022-12-04T08:06:36;13.03;;;7.50;;
8219;SDS011;4151;51.110;7.020;2022-12-04T08:09:02;10.97;;;6.40;;
8219;SDS011;4151;51.110;7.020;2022-12-04T08:11:28;13.53;;;7.10;;
8219;SDS011;4151;51.110;7.020;2022-12-04T08:13:55;14.20;;;6.97;;
8219;SDS011;4151;51.110;7.020;2022-12-04T08:16:22;13.40;;;7.77;;
8219;SDS011;4151;51.110;7.020;2022-12-04T08:18:48;11.80;;;6.43;;
8219;SDS011;4151;51.110;7.020;2022-12-04T08:21:15;12.23;;;7.17;;
8219;SDS011;4151;51.110;7.020;2022-12-04T08:23:44;14.50;;;6.30;;
8219;SDS011;4151;51.110;7.020;2022-12-04T08:26:10;14.03;;;6.20;;
8219;SDS011;4151;51.110;7.020;2022-12-04T08:28:37;13.67;;;6.77;;
8219;SDS011;4151;51.110;7.020;2022-12-04T08:31:07;9.57;;;6.20;;
8219;SDS011;4151;51.110;7.020;2022-12-04T08:33:36;12.10;;;6.60;;
8219;SDS011;4151;51.110;7.020;2022-12-04T08:36:06;11.13;;;6.00;;
8219;SDS011;4151;51.110;7.020;2022-12-04T08:38:33;12.03;;;6.10;;
8219;SDS011;4151;51.110;7.020;2022-12-04T08:41:00;10.83;;;5.87;;
8219;SDS011;4151;51.110;7.020;2022-12-04T08:43:27;11.77;;;6.60;;
8219;SDS011;4151;51.110;7.020;2022-12-04T08:45:53;14.30;;;6.53;;
8219;SDS011;4151;51.110;7.020;2022-12-04T08:48:23;14.03;;;7.67;;
8219;SDS011;4151;51.110;7.020;2022-12-04T08:50:49;13.00;;;6.97;;
8219;SDS011;4151;51.110;7.020;2022-12-04T08:53:14;12.73;;;7.27;;
8219;SDS011;4151;51.110;7.020;2022-12-04T08:55:40;11.77;;;6.20;;
8219;SDS011;4151;51.110;7.020;2022-12-04T08:58:05;12.37;;;6.40;;
8219;SDS011;4151;51.110;7.020;2022-12-04T09:00:31;12.93;;;6.43;;
8219;SDS011;4151;51.110;7.020;2022-12-04T09:02:56;11.67;;;6.17;;
8219;SDS011;4151;51.110;7.020;2022-12-04T09:05:22;13.50;;;6.60;;
8219;SDS011;4151;51.110;7.020;2022-12-04T09:07:48;13.70;;;6.40;;
8219;SDS011;4151;51.110;7.020;2022-12-04T09:10:13;15.97;;;7.00;;
8219;SDS011;4151;51.110;7.020;2022-12-04T09:12:39;11.77;;;6.40;;
8219;SDS011;4151;51.110;7.020;2022-12-04T09:15:04;12.93;;;6.20;;
8219;SDS011;4151;51.110;7.020;2022-12-04T09:17:30;11.33;;;6.50;;
8219;SDS011;4151;51.110;7.020;2022-12-04T09:19:58;11.50;;;6.53;;
8219;SDS011;4151;51.110;7.020;2022-12-04T09:22:23;10.93;;;5.90;;
8219;SDS011;4151;51.110;7.020;2022-12-04T09:24:49;11.13;;;6.03;;
8219;SDS011;4151;51.110;7.020;2022-12-04T09:27:14;11.13;;;6.10;;
8219;SDS011;4151;51.110;7.020;2022-12-04T09:29:40;14.27;;;7.10;;
8219;SDS011;4151;51.110;7.020;2022-12-04T09:32:06;9.77;;;5.03;;
8219;SDS011;4151;51.110;7.020;2022-12-04T09:34:32;12.43;;;6.40;;
8219;SDS011;4151;51.110;7.020;2022-12-04T09:36:57;13.53;;;6.30;;
8219;SDS011;4151;51.110;7.020;2022-12-04T09:39:23;12.23;;;6.80;;
8219;SDS011;4151;51.110;7.020;2022-12-04T09:44:24;12.10;;;7.20;;
8219;SDS011;4151;51.110;7.020;2022-12-04T09:47:17;12.10;;;6.30;;
8219;SDS011;4151;51.110;7.020;2022-12-04T09:49:48;10.63;;;6.03;;
8219;SDS011;4151;51.110;7.020;2022-12-04T11:24:14;13.27;;;7.40;;
8219;SDS011;4151;51.110;7.020;2022-12-04T11:26:45;13.77;;;7.50;;
8219;SDS011;4151;51.110;7.020;2022-12-04T11:29:12;17.67;;;7.67;;
8219;SDS011;4151;51.110;7.020;2022-12-04T11:31:45;15.03;;;7.90;;
8219;SDS011;4151;51.110;7.020;2022-12-04T11:34:14;13.60;;;7.13;;
8219;SDS011;4151;51.110;7.020;2022-12-04T11:36:46;12.53;;;6.97;;
8219;SDS011;4151;51.110;7.020;2022-12-04T11:39:17;12.30;;;7.60;;
8219;SDS011;4151;51.110;7.020;2022-12-04T11:41:57;11.77;;;7.60;;
8219;SDS011;4151;51.110;7.020;2022-12-04T11:44:29;22.30;;;10.80;;
8219;SDS011;4151;51.110;7.020;2022-12-04T11:47:00;37.17;;;16.50;;
8219;SDS011;4151;51.110;7.020;2022-12-04T11:49:27;20.43;;;8.97;;
8219;SDS011;4151;51.110;7.020;2022-12-04T12:01:35;17.47;;;8.57;;
8219;SDS011;4151;51.110;7.020;2022-12-04T12:12:45;13.77;;;7.33;;
8219;SDS011;4151;51.110;7.020;2022-12-04T12:15:29;10.93;;;6.40;;
8219;SDS011;4151;51.110;7.020;2022-12-04T12:18:14;11.10;;;7.23;;
8219;SDS011;4151;51.110;7.020;2022-12-04T12:21:01;11.00;;;6.37;;
8219;SDS011;4151;51.110;7.020;2022-12-04T12:26:09;11.30;;;7.10;;
8219;SDS011;4151;51.110;7.020;2022-12-04T12:28:40;11.50;;;6.80;;
8219;SDS011;4151;51.110;7.020;2022-12-04T12:31:24;12.07;;;6.10;;
8219;SDS011;4151;51.110;7.020;2022-12-04T12:36:59;13.63;;;6.33;;
8219;SDS011;4151;51.110;7.020;2022-12-04T12:39:39;13.23;;;6.53;;
8219;SDS011;4151;51.110;7.020;2022-12-04T12:42:24;10.30;;;5.80;;
8219;SDS011;4151;51.110;7.020;2022-12-04T12:45:04;12.50;;;6.27;;
8219;SDS011;4151;51.110;7.020;2022-12-04T12:47:49;13.20;;;7.10;;
8219;SDS011;4151;51.110;7.020;2022-12-04T12:50:42;12.80;;;6.57;;
8219;SDS011;4151;51.110;7.020;2022-12-04T12:53:10;11.27;;;7.00;;
8219;SDS011;4151;51.110;7.020;2022-12-04T12:55:44;12.07;;;7.10;;
8219;SDS011;4151;51.110;7.020;2022-12-04T12:58:16;15.77;;;7.97;;
8219;SDS011;4151;51.110;7.020;2022-12-04T13:00:53;14.50;;;6.60;;
8219;SDS011;4151;51.110;7.020;2022-12-04T13:06:24;10.53;;;6.67;;
8219;SDS011;4151;51.110;7.020;2022-12-04T13:09:08;18.53;;;8.07;;
8219;SDS011;4151;51.110;7.020;2022-12-04T13:11:56;16.40;;;8.03;;
8219;SDS011;4151;51.110;7.020;2022-12-04T13:14:25;13.80;;;6.53;;
8219;SDS011;4151;51.110;7.020;2022-12-04T13:16:52;14.57;;;7.03;;
8219;SDS011;4151;51.110;7.020;2022-12-04T13:19:28;15.13;;;7.63;;
8219;SDS011;4151;51.110;7.020;2022-12-04T13:38:29;15.20;;;7.23;;
8219;SDS011;4151;51.110;7.020;2022-12-04T13:41:08;12.13;;;7.43;;
8219;SDS011;4151;51.110;7.020;2022-12-04T13:49:05;16.57;;;8.17;;
8219;SDS011;4151;51.110;7.020;2022-12-04T13:51:40;15.30;;;8.27;;
8219;SDS011;4151;51.110;7.020;2022-12-04T13:56:38;16.93;;;9.03;;
8219;SDS011;4151;51.110;7.020;2022-12-04T13:59:19;15.93;;;8.30;;
8219;SDS011;4151;51.110;7.020;2022-12-04T14:01:46;16.87;;;9.13;;
8219;SDS011;4151;51.110;7.020;2022-12-04T14:04:25;14.17;;;7.87;;
8219;SDS011;4151;51.110;7.020;2022-12-04T14:06:58;15.83;;;8.20;;
8219;SDS011;4151;51.110;7.020;2022-12-04T14:09:26;16.70;;;8.23;;
8219;SDS011;4151;51.110;7.020;2022-12-04T14:12:01;15.43;;;8.27;;
8219;SDS011;4151;51.110;7.020;2022-12-04T14:14:32;19.47;;;8.40;;
8219;SDS011;4151;51.110;7.020;2022-12-04T14:17:04;16.47;;;8.57;;
8219;SDS011;4151;51.110;7.020;2022-12-04T14:19:33;20.80;;;9.60;;
8219;SDS011;4151;51.110;7.020;2022-12-04T14:22:01;19.43;;;8.70;;
8219;SDS011;4151;51.110;7.020;2022-12-04T14:24:28;16.73;;;8.60;;
8219;SDS011;4151;51.110;7.020;2022-12-04T14:26:54;19.30;;;9.40;;
8219;SDS011;4151;51.110;7.020;2022-12-04T14:31:57;18.30;;;8.70;;
8219;SDS011;4151;51.110;7.020;2022-12-04T14:34:28;16.47;;;7.90;;
8219;SDS011;4151;51.110;7.020;2022-12-04T14:36:56;17.10;;;9.70;;
8219;SDS011;4151;51.110;7.020;2022-12-04T14:39:25;28.60;;;12.20;;
8219;SDS011;4151;51.110;7.020;2022-12-04T14:42:03;20.90;;;10.53;;
8219;SDS011;4151;51.110;7.020;2022-12-04T14:44:37;19.33;;;9.77;;
8219;SDS011;4151;51.110;7.020;2022-12-04T14:47:11;20.93;;;9.23;;
8219;SDS011;4151;51.110;7.020;2022-12-04T14:52:23;17.20;;;9.30;;
8219;SDS011;4151;51.110;7.020;2022-12-04T15:00:23;22.30;;;9.67;;
8219;SDS011;4151;51.110;7.020;2022-12-04T15:02:56;18.97;;;10.27;;
8219;SDS011;4151;51.110;7.020;2022-12-04T15:05:30;21.87;;;9.50;;
8219;SDS011;4151;51.110;7.020;2022-12-04T15:07:57;18.60;;;9.83;;
8219;SDS011;4151;51.110;7.020;2022-12-04T15:10:27;22.20;;;10.70;;
8219;SDS011;4151;51.110;7.020;2022-12-04T15:13:24;25.73;;;10.10;;
8219;SDS011;4151;51.110;7.020;2022-12-04T15:15:49;24.77;;;10.47;;
8219;SDS011;4151;51.110;7.020;2022-12-04T15:18:16;27.90;;;12.27;;
8219;SDS011;4151;51.110;7.020;2022-12-04T15:23:34;25.57;;;9.50;;
8219;SDS011;4151;51.110;7.020;2022-12-04T15:26:12;19.60;;;9.70;;
8219;SDS011;4151;51.110;7.020;2022-12-04T15:28:44;18.67;;;10.03;;
8219;SDS011;4151;51.110;7.020;2022-12-04T15:31:16;17.77;;;9.93;;
8219;SDS011;4151;51.110;7.020;2022-12-04T15:33:48;29.53;;;13.93;;
8219;SDS011;4151;51.110;7.020;2022-12-04T15:39:04;25.60;;;11.67;;
8219;SDS011;4151;51.110;7.020;2022-12-04T15:41:31;20.20;;;10.23;;
8219;SDS011;4151;51.110;7.020;2022-12-04T15:43:59;21.17;;;10.07;;
8219;SDS011;4151;51.110;7.020;2022-12-04T15:46:30;23.90;;;10.40;;
8219;SDS011;4151;51.110;7.020;2022-12-04T15:49:32;24.70;;;11.40;;
8219;SDS011;4151;51.110;7.020;2022-12-04T15:51:52;23.77;;;11.03;;
8219;SDS011;4151;51.110;7.020;2022-12-04T15:54:31;23.90;;;12.00;;
8219;SDS011;4151;51.110;7.020;2022-12-04T15:57:00;21.67;;;11.07;;
8219;SDS011;4151;51.110;7.020;2022-12-04T15:59:29;23.13;;;11.47;;
8219;SDS011;4151;51.110;7.020;2022-12-04T16:01:58;28.10;;;11.20;;
8219;SDS011;4151;51.110;7.020;2022-12-04T16:04:48;29.80;;;12.40;;
8219;SDS011;4151;51.110;7.020;2022-12-04T16:07:17;28.13;;;13.47;;
8219;SDS011;4151;51.110;7.020;2022-12-04T16:09:54;27.90;;;12.97;;
8219;SDS011;4151;51.110;7.020;2022-12-04T16:12:23;30.03;;;12.70;;
8219;SDS011;4151;51.110;7.020;2022-12-04T16:14:51;31.90;;;16.20;;
8219;SDS011;4151;51.110;7.020;2022-12-04T16:17:18;35.33;;;14.70;;
8219;SDS011;4151;51.110;7.020;2022-12-04T16:19:44;29.20;;;12.70;;
8219;SDS011;4151;51.110;7.020;2022-12-04T16:22:11;29.60;;;13.90;;
8219;SDS011;4151;51.110;7.020;2022-12-04T16:24:39;29.27;;;13.47;;
8219;SDS011;4151;51.110;7.020;2022-12-04T16:27:15;29.00;;;14.13;;
8219;SDS011;4151;51.110;7.020;2022-12-04T16:29:46;28.83;;;12.93;;
8219;SDS011;4151;51.110;7.020;2022-12-04T16:32:16;27.63;;;12.73;;
8219;SDS011;4151;51.110;7.020;2022-12-04T16:34:43;30.63;;;13.43;;
8219;SDS011;4151;51.110;7.020;2022-12-04T16:37:16;37.50;;;14.00;;
8219;SDS011;4151;51.110;7.020;2022-12-04T16:39:45;32.80;;;13.90;;
8219;SDS011;4151;51.110;7.020;2022-12-04T16:42:15;28.10;;;12.13;;
8219;SDS011;4151;51.110;7.020;2022-12-04T16:44:51;30.03;;;13.67;;
8219;SDS011;4151;51.110;7.020;2022-12-04T16:47:17;28.60;;;13.40;;
8219;SDS011;4151;51.110;7.020;2022-12-04T16:49:44;26.20;;;13.30;;
8219;SDS011;4151;51.110;7.020;2022-12-04T16:52:12;25.57;;;12.20;;
8219;SDS011;4151;51.110;7.020;2022-12-04T16:54:38;22.80;;;11.20;;
8219;SDS011;4151;51.110;7.020;2022-12-04T16:57:04;29.20;;;13.03;;
8219;SDS011;4151;51.110;7.020;2022-12-04T16:59:31;29.17;;;13.00;;
8219;SDS011;4151;51.110;7.020;2022-12-04T17:01:56;28.90;;;12.20;;
8219;SDS011;4151;51.110;7.020;2022-12-04T17:04:23;24.40;;;12.07;;
8219;SDS011;4151;51.110;7.020;2022-12-04T17:06:49;27.57;;;12.60;;
8219;SDS011;4151;51.110;7.020;2022-12-04T17:09:14;29.03;;;13.00;;
8219;SDS011;4151;51.110;7.020;2022-12-04T17:11:41;24.03;;;11.60;;
8219;SDS011;4151;51.110;7.020;2022-12-04T17:14:07;27.10;;;12.10;;
8219;SDS011;4151;51.110;7.020;2022-12-04T17:16:34;28.63;;;13.73;;
8219;SDS011;4151;51.110;7.020;2022-12-04T17:19:00;23.93;;;11.57;;
8219;SDS011;4151;51.110;7.020;2022-12-04T17:21:26;24.70;;;11.13;;
8219;SDS011;4151;51.110;7.020;2022-12-04T17:23:51;24.63;;;11.87;;
8219;SDS011;4151;51.110;7.020;2022-12-04T17:26:17;22.90;;;12.73;;
8219;SDS011;4151;51.110;7.020;2022-12-04T17:28:42;27.40;;;12.60;;
8219;SDS011;4151;51.110;7.020;2022-12-04T17:31:12;21.40;;;11.40;;
8219;SDS011;4151;51.110;7.020;2022-12-04T17:33:41;24.23;;;11.50;;
8219;SDS011;4151;51.110;7.020;2022-12-04T17:36:10;23.80;;;11.70;;
8219;SDS011;4151;51.110;7.020;2022-12-04T17:38:37;24.77;;;12.03;;
8219;SDS011;4151;51.110;7.020;2022-12-04T17:41:05;24.20;;;11.80;;
8219;SDS011;4151;51.110;7.020;2022-12-04T17:43:32;27.27;;;11.77;;
8219;SDS011;4151;51.110;7.020;2022-12-04T17:45:58;26.97;;;11.87;;
8219;SDS011;4151;51.110;7.020;2022-12-04T17:48:24;23.70;;;11.57;;
8219;SDS011;4151;51.110;7.020;2022-12-04T17:50:50;26.90;;;11.70;;
8219;SDS011;4151;51.110;7.020;2022-12-04T17:53:31;27.40;;;12.20;;
8219;SDS011;4151;51.110;7.020;2022-12-04T17:56:00;28.67;;;11.87;;
8219;SDS011;4151;51.110;7.020;2022-12-04T17:58:28;22.67;;;11.50;;
8219;SDS011;4151;51.110;7.020;2022-12-04T18:00:59;22.97;;;11.83;;
8219;SDS011;4151;51.110;7.020;2022-12-04T18:03:29;28.90;;;12.70;;
8219;SDS011;4151;51.110;7.020;2022-12-04T18:05:55;23.90;;;11.70;;
8219;SDS011;4151;51.110;7.020;2022-12-04T18:08:20;23.67;;;12.00;;
8219;SDS011;4151;51.110;7.020;2022-12-04T18:10:46;24.20;;;12.67;;
8219;SDS011;4151;51.110;7.020;2022-12-04T18:13:12;23.57;;;12.20;;
8219;SDS011;4151;51.110;7.020;2022-12-04T18:15:37;23.17;;;11.87;;
8219;SDS011;4151;51.110;7.020;2022-12-04T18:18:03;25.47;;;12.80;;
8219;SDS011;4151;51.110;7.020;2022-12-04T18:20:28;25.83;;;11.87;;
8219;SDS011;4151;51.110;7.020;2022-12-04T18:22:54;26.53;;;12.20;;
8219;SDS011;4151;51.110;7.020;2022-12-04T18:25:19;21.50;;;11.60;;
8219;SDS011;4151;51.110;7.020;2022-12-04T18:27:45;25.07;;;11.87;;
8219;SDS011;4151;51.110;7.020;2022-12-04T18:30:11;24.10;;;11.87;;
8219;SDS011;4151;51.110;7.020;2022-12-04T18:32:37;19.87;;;10.80;;
8219;SDS011;4151;51.110;7.020;2022-12-04T18:35:03;23.07;;;11.50;;